Time;durP1;ratioP1;P1;durP2;ratioP2;P2;SDS_P1;SDS_P2;PMS_P1;PMS_P2;Temp;Humidity;BMP_temperature;BMP_pressure;BME280_temperature;BME280_humidity;BME280_pressure;Samples;Min_cycle;Max_cycle;Signal;HPM_P1;HPM_P2
2021/01/04 00:00:21;;;;;;;6.13;5.82;;;;;;;2.84;84.95;100098.34;5051725;28;20049;-65
2021/01/04 00:03:09;;;;;;;5.95;5.65;;;;;;;2.82;85.20;100106.13;5052116;28;20055;-66
2021/01/04 00:05:39;;;;;;;5.78;5.47;;;;;;;2.84;84.95;100100.94;5052072;28;20092;-65
2021/01/04 00:08:19;;;;;;;5.40;5.10;;;;;;;2.85;85.11;100100.06;5052000;28;20393;-66
2021/01/04 00:11:03;;;;;;;5.43;5.13;;;;;;;2.88;85.01;100100.03;5052242;28;20051;-66
2021/01/04 00:13:38;;;;;;;6.15;5.85;;;;;;;2.88;84.82;100094.84;5051314;28;20098;-67
2021/01/04 00:16:18;;;;;;;5.63;5.32;;;;;;;2.89;85.00;100096.56;5052195;28;20102;-66
2021/01/04 00:18:48;;;;;;;5.35;5.05;;;;;;;2.93;85.09;100090.53;5051860;28;20494;-66
2021/01/04 00:21:23;;;;;;;5.32;5.03;;;;;;;2.94;84.94;100100.00;5041463;28;20052;-67
2021/01/04 00:24:02;;;;;;;5.85;5.55;;;;;;;2.94;84.92;100094.81;5031738;28;20084;-67
2021/01/04 00:26:36;;;;;;;6.18;5.88;;;;;;;2.96;84.89;100098.25;5044870;28;20067;-67
2021/01/04 00:29:03;;;;;;;5.53;5.22;;;;;;;2.93;84.86;100100.88;5051789;28;20051;-66
2021/01/04 00:31:35;;;;;;;6.00;5.70;;;;;;;2.93;84.98;100091.38;5051888;28;20045;-67
2021/01/04 00:34:08;;;;;;;5.70;5.40;;;;;;;2.97;85.04;100102.56;5051796;28;20086;-68
2021/01/04 00:36:55;;;;;;;6.03;5.72;;;;;;;3.00;84.85;100092.16;5051826;28;20049;-67
2021/01/04 00:39:36;;;;;;;5.63;5.32;;;;;;;2.99;84.92;100093.91;5051793;28;20054;-68
2021/01/04 00:42:08;;;;;;;5.55;5.25;;;;;;;3.01;84.65;100096.47;5051087;28;20047;-67
2021/01/04 00:45:01;;;;;;;5.72;5.43;;;;;;;2.99;84.91;100101.66;5052162;28;20139;-67
2021/01/04 00:47:33;;;;;;;6.13;5.82;;;;;;;2.99;84.78;100093.03;5031467;28;20042;-68
2021/01/04 00:50:06;;;;;;;5.88;5.57;;;;;;;2.97;85.02;100092.19;5034231;28;20042;-67
2021/01/04 00:52:39;;;;;;;6.03;5.72;;;;;;;2.98;84.80;100096.50;5038244;28;20096;-66
2021/01/04 00:55:22;;;;;;;6.03;5.72;;;;;;;2.97;84.81;100103.41;5038674;28;20060;-66
2021/01/04 00:58:36;;;;;;;5.68;5.38;;;;;;;2.96;84.89;100104.28;5035646;28;20141;-67
2021/01/04 01:01:11;;;;;;;6.05;5.75;;;;;;;2.92;84.99;100099.16;4964679;28;20066;-67
2021/01/04 01:03:47;;;;;;;5.75;5.45;;;;;;;2.93;84.97;100100.88;4981545;28;20043;-67
2021/01/04 01:06:24;;;;;;;6.32;6.03;;;;;;;2.95;84.96;100104.31;5034048;28;20044;-67
2021/01/04 01:08:54;;;;;;;6.13;5.82;;;;;;;2.96;84.94;100103.44;5054492;28;20045;-66
2021/01/04 01:11:24;;;;;;;5.70;5.40;;;;;;;2.97;84.95;100099.97;5055204;28;20077;-67
2021/01/04 01:14:13;;;;;;;6.07;5.78;;;;;;;2.98;84.91;100099.09;5054924;28;20091;-66
2021/01/04 01:17:20;;;;;;;5.95;5.65;;;;;;;3.00;84.85;100099.94;5055201;28;20049;-68
2021/01/04 01:19:51;;;;;;;5.93;5.63;;;;;;;3.00;84.92;100089.56;5054702;28;20428;-68
2021/01/04 01:22:26;;;;;;;6.03;5.72;;;;;;;3.03;84.91;100099.91;5047557;28;20041;-68
2021/01/04 01:24:52;;;;;;;5.85;5.55;;;;;;;3.05;84.91;100096.41;5043136;28;20128;-66
2021/01/04 01:27:43;;;;;;;6.20;5.90;;;;;;;3.04;84.87;100096.44;5047979;28;20396;-67
2021/01/04 01:30:39;;;;;;;5.80;5.50;;;;;;;3.08;84.81;100095.53;5040188;28;20409;-68
2021/01/04 01:33:16;;;;;;;6.07;5.78;;;;;;;3.10;84.73;100098.94;5042559;28;20091;-65
2021/01/04 01:36:01;;;;;;;6.10;5.80;;;;;;;3.12;85.02;100104.09;5052479;28;20037;-66
2021/01/04 01:38:57;;;;;;;6.25;5.95;;;;;;;3.15;85.00;100098.94;5053473;28;20442;-65
2021/01/04 01:41:54;;;;;;;5.50;5.20;;;;;;;3.15;84.80;100094.59;5028246;28;20172;-65
2021/01/04 01:44:27;;;;;;;5.43;5.13;;;;;;;3.15;84.76;100099.78;5033983;28;20124;-65
2021/01/04 01:47:00;;;;;;;5.85;5.55;;;;;;;3.14;84.72;100098.06;5033164;28;20064;-65
2021/01/04 01:49:55;;;;;;;6.35;6.05;;;;;;;3.17;84.92;100085.06;5034472;28;20045;-66
2021/01/04 01:52:37;;;;;;;6.22;5.93;;;;;;;3.19;84.79;100093.69;5021431;28;20057;-66
2021/01/04 01:55:16;;;;;;;6.32;6.03;;;;;;;3.22;85.01;100080.69;5034232;28;20128;-65
2021/01/04 01:58:00;;;;;;;6.07;5.78;;;;;;;3.22;84.93;100085.88;5033894;28;20582;-65
2021/01/04 02:00:34;;;;;;;6.05;5.75;;;;;;;3.25;84.85;100085.84;5034354;28;20063;-64
2021/01/04 02:03:07;;;;;;;5.95;5.65;;;;;;;3.26;84.78;100087.56;5034194;28;20041;-65
2021/01/04 02:06:07;;;;;;;5.82;5.53;;;;;;;3.28;84.71;100090.97;5033392;28;20048;-66
2021/01/04 02:08:40;;;;;;;6.10;5.80;;;;;;;3.28;84.69;100084.94;5001125;28;20049;-65
2021/01/04 02:11:11;;;;;;;5.15;4.85;;;;;;;3.29;84.99;100087.50;5042311;28;20072;-66
2021/01/04 02:13:52;;;;;;;5.82;5.53;;;;;;;3.32;84.71;100077.09;5046930;28;20049;-66
2021/01/04 02:16:24;;;;;;;6.07;5.78;;;;;;;3.36;84.81;100083.13;5041814;28;20045;-66
2021/01/04 02:19:03;;;;;;;5.50;5.20;;;;;;;3.36;84.67;100089.19;5053158;28;20053;-66
2021/01/04 02:22:04;;;;;;;5.68;5.38;;;;;;;3.37;84.86;100084.84;5053678;28;20041;-65
2021/01/04 02:24:31;;;;;;;6.63;6.32;;;;;;;3.41;84.92;100080.50;5037941;28;20076;-64
2021/01/04 02:27:02;;;;;;;6.38;6.07;;;;;;;3.43;84.91;100081.31;5040499;28;20338;-66
2021/01/04 02:29:29;;;;;;;6.03;5.72;;;;;;;3.45;84.65;100082.16;5038881;28;20050;-65
2021/01/04 02:31:58;;;;;;;5.25;4.95;;;;;;;3.45;85.04;100069.19;5033593;28;20045;-65
2021/01/04 02:34:27;;;;;;;6.53;6.22;;;;;;;3.45;84.77;100074.38;5033275;28;20409;-65
2021/01/04 02:36:57;;;;;;;6.53;6.22;;;;;;;3.48;84.75;100070.03;5033769;28;20128;-65
2021/01/04 02:39:30;;;;;;;5.75;5.45;;;;;;;3.48;84.76;100082.13;5033016;28;20485;-65
2021/01/04 02:42:05;;;;;;;6.07;5.78;;;;;;;3.48;84.57;100087.31;5039741;28;20059;-66
2021/01/04 02:44:32;;;;;;;6.43;6.13;;;;;;;3.51;84.64;100082.06;5033008;28;20045;-64
2021/01/04 02:47:15;;;;;;;6.28;5.97;;;;;;;3.51;84.79;100080.34;5033251;28;20045;-66
2021/01/04 02:49:52;;;;;;;6.20;5.90;;;;;;;3.52;84.71;100089.84;5033381;28;20053;-66
2021/01/04 02:52:29;;;;;;;6.45;6.15;;;;;;;3.53;84.75;100090.69;5033457;28;20091;-66
2021/01/04 02:55:01;;;;;;;5.82;5.53;;;;;;;3.53;84.72;100094.13;5033355;28;20050;-66
2021/01/04 02:57:35;;;;;;;6.05;5.75;;;;;;;3.55;84.84;100094.16;5033352;28;20057;-66
2021/01/04 03:00:08;;;;;;;5.97;5.68;;;;;;;3.57;84.87;100084.63;5033339;28;20053;-66
2021/01/04 03:02:38;;;;;;;6.57;6.28;;;;;;;3.57;84.60;100080.28;5033378;28;20045;-65
2021/01/04 03:05:05;;;;;;;6.03;5.72;;;;;;;3.59;84.70;100082.84;5033190;28;20046;-66
2021/01/04 03:07:33;;;;;;;6.25;5.95;;;;;;;3.59;84.56;100077.69;5032690;28;20424;-66
2021/01/04 03:10:06;;;;;;;6.07;5.78;;;;;;;3.60;84.84;100076.78;5032965;28;20099;-65
2021/01/04 03:12:36;;;;;;;6.35;6.05;;;;;;;3.60;84.81;100069.03;5032824;28;20052;-66
2021/01/04 03:15:26;;;;;;;6.40;6.10;;;;;;;3.61;84.85;100073.31;5032196;28;20038;-66
2021/01/04 03:18:08;;;;;;;6.38;6.07;;;;;;;3.62;84.70;100069.84;5033037;28;20053;-65
2021/01/04 03:20:35;;;;;;;6.45;6.15;;;;;;;3.64;84.64;100068.09;5031737;28;20045;-66
2021/01/04 03:23:01;;;;;;;6.28;5.97;;;;;;;3.65;84.77;100062.88;5033016;28;20049;-66
2021/01/04 03:25:36;;;;;;;6.25;5.95;;;;;;;3.65;84.70;100072.41;5031893;28;20095;-66
2021/01/04 03:28:05;;;;;;;6.22;5.93;;;;;;;3.65;84.72;100078.44;5032740;28;20123;-66
2021/01/04 03:30:31;;;;;;;5.85;5.55;;;;;;;3.63;84.59;100076.75;5032583;28;20053;-66
2021/01/04 03:32:58;;;;;;;6.38;6.07;;;;;;;3.65;84.48;100080.19;5032849;28;20496;-66
2021/01/04 03:35:25;;;;;;;6.53;6.22;;;;;;;3.66;84.67;100077.56;5032645;28;20069;-66
2021/01/04 03:37:51;;;;;;;6.32;6.03;;;;;;;3.67;84.62;100079.28;5032758;28;20136;-66
2021/01/04 03:40:18;;;;;;;6.80;6.50;;;;;;;3.68;84.60;100081.00;5031823;28;20077;-65
2021/01/04 03:42:44;;;;;;;6.00;5.70;;;;;;;3.68;84.51;100080.13;5032623;28;20054;-66
2021/01/04 03:45:12;;;;;;;6.07;5.78;;;;;;;3.68;84.69;100085.31;5032546;28;20088;-67
2021/01/04 03:47:38;;;;;;;5.72;5.43;;;;;;;3.70;84.57;100088.75;5032568;28;20041;-66
2021/01/04 03:50:06;;;;;;;6.18;5.88;;;;;;;3.68;84.65;100086.19;5031460;28;20564;-66
2021/01/04 03:52:32;;;;;;;6.13;5.82;;;;;;;3.69;84.53;100084.44;5032642;28;20507;-66
2021/01/04 03:54:58;;;;;;;6.45;6.15;;;;;;;3.67;84.59;100091.38;5032088;28;20045;-66
2021/01/04 03:57:24;;;;;;;5.95;5.65;;;;;;;3.64;84.72;100089.69;5032477;28;20053;-66
2021/01/04 03:59:50;;;;;;;6.60;6.30;;;;;;;3.63;84.65;100079.34;5032020;28;20503;-66
2021/01/04 04:02:19;;;;;;;6.18;5.88;;;;;;;3.63;84.73;100093.16;5032403;28;20511;-66
2021/01/04 04:04:45;;;;;;;6.20;5.90;;;;;;;3.65;84.63;100090.53;5031959;28;20050;-64
2021/01/04 04:07:11;;;;;;;6.32;6.03;;;;;;;3.65;84.64;100100.91;5032177;28;20057;-65
2021/01/04 04:09:37;;;;;;;5.95;5.65;;;;;;;3.62;84.49;100090.59;5031675;28;20556;-65
2021/01/04 04:12:04;;;;;;;6.13;5.82;;;;;;;3.59;84.53;100096.69;5031541;28;20042;-66
2021/01/04 04:14:30;;;;;;;6.57;6.28;;;;;;;3.54;84.67;100097.59;5031812;28;20057;-65
2021/01/04 04:16:56;;;;;;;5.97;5.68;;;;;;;3.54;84.63;100100.19;5032106;28;20646;-65
2021/01/04 04:19:23;;;;;;;5.90;5.60;;;;;;;3.49;84.50;100089.88;5031212;28;20045;-64
2021/01/04 04:21:50;;;;;;;6.13;5.82;;;;;;;3.48;84.66;100095.06;5047155;28;20456;-65
2021/01/04 04:24:16;;;;;;;6.60;6.30;;;;;;;3.49;84.80;100095.06;5031678;28;20053;-65
2021/01/04 04:26:42;;;;;;;5.90;5.60;;;;;;;3.53;84.59;100090.69;5047769;28;20037;-65
2021/01/04 04:29:09;;;;;;;5.82;5.53;;;;;;;3.56;84.82;100096.72;5046847;28;20081;-65
2021/01/04 04:31:41;;;;;;;6.20;5.90;;;;;;;3.58;84.90;100101.88;5043772;28;20091;-65
2021/01/04 04:34:07;;;;;;;5.90;5.60;;;;;;;3.59;84.69;100101.84;5048894;28;20067;-65
2021/01/04 04:36:34;;;;;;;6.30;6.00;;;;;;;3.59;84.74;100101.00;5035919;28;20079;-65
2021/01/04 04:39:00;;;;;;;6.22;5.93;;;;;;;3.58;84.72;100100.16;5035322;28;20315;-66
2021/01/04 04:41:29;;;;;;;6.00;5.70;;;;;;;3.59;84.71;100090.63;5034519;28;20060;-66
2021/01/04 04:44:05;;;;;;;6.70;6.40;;;;;;;3.63;84.79;100098.34;5035340;28;20053;-66
2021/01/04 04:46:43;;;;;;;6.30;6.00;;;;;;;3.64;84.77;100091.44;5035560;28;20041;-65
2021/01/04 04:49:19;;;;;;;6.63;6.32;;;;;;;3.67;84.83;100091.38;5035501;28;20053;-68
2021/01/04 04:52:11;;;;;;;6.00;5.70;;;;;;;3.65;84.73;100096.59;5035733;28;20053;-65
2021/01/04 04:54:51;;;;;;;5.95;5.65;;;;;;;3.65;84.76;100106.97;5035112;28;20494;-65
2021/01/04 04:57:38;;;;;;;5.95;5.65;;;;;;;3.65;84.84;100106.09;5035187;28;20057;-66
2021/01/04 05:00:21;;;;;;;5.93;5.63;;;;;;;3.64;84.65;100102.66;5035506;28;20042;-65
2021/01/04 05:02:56;;;;;;;6.15;5.85;;;;;;;3.67;84.80;100104.34;5055497;28;20053;-65
2021/01/04 05:05:30;;;;;;;6.25;5.95;;;;;;;3.69;84.80;100102.59;5046391;28;20053;-66
2021/01/04 05:08:08;;;;;;;6.05;5.75;;;;;;;3.68;84.73;100099.13;5041179;28;20531;-66
2021/01/04 05:10:37;;;;;;;6.13;5.82;;;;;;;3.73;84.88;100098.22;5047338;28;20049;-66
2021/01/04 05:13:14;;;;;;;6.10;5.80;;;;;;;3.72;84.93;100097.34;5052454;28;20127;-66
2021/01/04 05:15:48;;;;;;;6.32;6.03;;;;;;;3.74;84.73;100100.78;5042112;28;20046;-65
2021/01/04 05:18:47;;;;;;;6.05;5.75;;;;;;;3.75;84.90;100107.72;5051202;28;20045;-65
2021/01/04 05:21:42;;;;;;;6.28;5.97;;;;;;;3.76;84.74;100111.16;5054783;28;20401;-64
2021/01/04 05:24:36;;;;;;;6.75;6.45;;;;;;;3.73;84.72;100114.63;5054648;28;20056;-66
2021/01/04 05:27:33;;;;;;;6.15;5.85;;;;;;;3.69;84.71;100115.56;5054104;28;20095;-65
2021/01/04 05:30:30;;;;;;;6.45;6.15;;;;;;;3.68;84.89;100129.38;5054608;28;20045;-66
2021/01/04 05:33:30;;;;;;;6.18;5.88;;;;;;;3.67;84.89;100125.09;5054515;28;20045;-65
2021/01/04 05:36:05;;;;;;;5.97;5.68;;;;;;;3.67;84.85;100127.69;5054721;28;21099;-65
2021/01/04 05:38:41;;;;;;;6.32;6.03;;;;;;;3.71;84.78;100125.91;5054471;28;20100;-65
2021/01/04 05:41:33;;;;;;;6.13;5.82;;;;;;;3.73;84.89;100124.16;5054343;28;20480;-65
2021/01/04 05:44:19;;;;;;;6.20;5.90;;;;;;;3.74;84.92;100125.84;5054227;28;20507;-65
2021/01/04 05:46:49;;;;;;;6.97;6.68;;;;;;;3.76;84.47;100129.31;5054423;28;20052;-66
2021/01/04 05:49:26;;;;;;;5.67;5.37;;;;;;;3.76;84.71;100134.50;5054179;28;20568;-65
2021/01/04 05:51:53;;;;;;;5.53;5.22;;;;;;;3.75;84.75;100136.25;5036232;28;20046;-65
2021/01/04 05:54:28;;;;;;;6.13;5.82;;;;;;;3.75;84.75;100132.75;5033717;28;20179;-65
2021/01/04 05:57:06;;;;;;;6.07;5.78;;;;;;;3.74;84.94;100131.91;5033686;28;20133;-64
2021/01/04 05:59:32;;;;;;;5.65;5.35;;;;;;;3.76;84.79;100126.72;5034251;28;20046;-65
2021/01/04 06:02:04;;;;;;;6.03;5.72;;;;;;;3.76;84.93;100129.31;5052547;28;20477;-65
2021/01/04 06:04:31;;;;;;;6.25;5.95;;;;;;;3.77;84.80;100131.88;5055055;28;20102;-64
2021/01/04 06:07:01;;;;;;;5.90;5.60;;;;;;;3.77;85.21;100137.06;5053689;28;20059;-64
2021/01/04 06:09:28;;;;;;;6.32;6.03;;;;;;;3.74;84.83;100125.84;5054016;28;20101;-64
2021/01/04 06:11:57;;;;;;;6.20;5.90;;;;;;;3.73;84.88;100132.78;5052792;28;20097;-64
2021/01/04 06:14:26;;;;;;;5.88;5.57;;;;;;;3.72;84.85;100144.03;5050655;28;20052;-64
2021/01/04 06:16:58;;;;;;;6.13;5.82;;;;;;;3.73;84.98;100140.56;5035123;28;20120;-65
2021/01/04 06:19:25;;;;;;;5.85;5.55;;;;;;;3.77;84.88;100134.47;5043240;28;20055;-66
2021/01/04 06:21:53;;;;;;;5.82;5.53;;;;;;;3.78;84.87;100143.13;5053758;28;20144;-64
2021/01/04 06:24:27;;;;;;;6.25;5.95;;;;;;;3.79;84.86;100144.84;5052487;28;20514;-64
2021/01/04 06:26:55;;;;;;;5.93;5.63;;;;;;;3.82;84.79;100139.59;5053279;28;20136;-64
2021/01/04 06:29:36;;;;;;;6.22;5.93;;;;;;;3.83;84.85;100133.53;5052695;28;20070;-64
2021/01/04 06:32:06;;;;;;;5.95;5.65;;;;;;;3.88;84.65;100145.56;5053236;28;20419;-64
2021/01/04 06:34:34;;;;;;;6.05;5.75;;;;;;;3.87;84.79;100138.66;5052739;28;20051;-64
2021/01/04 06:37:08;;;;;;;6.20;5.90;;;;;;;3.87;84.70;100145.59;5050329;28;20045;-65
2021/01/04 06:39:35;;;;;;;5.85;5.55;;;;;;;3.88;84.85;100142.97;5052958;28;20053;-64
2021/01/04 06:42:15;;;;;;;5.93;5.63;;;;;;;3.87;84.94;100138.66;5053011;28;20045;-64
2021/01/04 06:45:01;;;;;;;5.68;5.38;;;;;;;3.89;84.91;100138.63;5048479;28;20132;-64
2021/01/04 06:47:41;;;;;;;5.72;5.43;;;;;;;3.88;84.70;100140.38;5049661;28;20098;-64
2021/01/04 06:50:12;;;;;;;5.55;5.25;;;;;;;3.90;84.96;100143.81;5046583;28;20055;-65
2021/01/04 06:53:16;;;;;;;5.53;5.22;;;;;;;3.91;84.79;100150.69;5033027;28;20042;-64
2021/01/04 06:56:20;;;;;;;6.32;6.03;;;;;;;3.91;84.75;100147.25;5031715;28;20579;-65
2021/01/04 06:59:27;;;;;;;6.50;6.20;;;;;;;3.88;84.74;100142.97;5032654;28;20505;-65
2021/01/04 07:02:28;;;;;;;6.55;6.25;;;;;;;3.91;84.91;100144.66;5026990;28;20509;-64
2021/01/04 07:05:27;;;;;;;5.65;5.35;;;;;;;3.87;84.67;100140.41;5032926;28;20045;-64
2021/01/04 07:08:08;;;;;;;6.53;6.22;;;;;;;3.87;84.65;100150.75;5023500;28;20059;-64
2021/01/04 07:10:46;;;;;;;6.10;5.80;;;;;;;3.86;84.87;100149.91;5032149;28;20046;-65
2021/01/04 07:13:35;;;;;;;5.75;5.45;;;;;;;3.87;84.97;100146.44;5032373;28;20563;-64
2021/01/04 07:16:21;;;;;;;6.47;6.18;;;;;;;3.92;85.02;100149.81;5032767;28;20053;-65
2021/01/04 07:18:55;;;;;;;6.05;5.75;;;;;;;3.93;84.96;100143.75;5040032;28;20045;-64
2021/01/04 07:21:33;;;;;;;6.45;6.15;;;;;;;3.92;84.80;100141.19;5040802;28;20477;-65
2021/01/04 07:24:11;;;;;;;6.05;5.75;;;;;;;3.89;84.90;100134.31;5032398;28;20132;-65
2021/01/04 07:26:58;;;;;;;5.78;5.47;;;;;;;3.92;84.91;100131.66;5031714;28;20084;-65
2021/01/04 07:29:42;;;;;;;6.28;5.97;;;;;;;3.94;84.95;100135.09;5032289;28;20045;-65
2021/01/04 07:32:12;;;;;;;5.88;5.57;;;;;;;3.96;84.94;100135.09;5032659;28;20132;-64
2021/01/04 07:34:47;;;;;;;6.37;6.07;;;;;;;4.00;85.01;100133.31;5032523;28;20132;-65
2021/01/04 07:37:31;;;;;;;6.05;5.75;;;;;;;3.97;84.85;100132.50;5032516;28;20320;-65
2021/01/04 07:40:02;;;;;;;6.22;5.93;;;;;;;3.99;84.80;100132.47;5039800;28;20099;-65
2021/01/04 07:42:55;;;;;;;5.75;5.45;;;;;;;4.02;85.01;100134.16;5051603;28;20392;-65
2021/01/04 07:45:40;;;;;;;6.32;6.03;;;;;;;4.02;84.97;100131.56;5052332;28;20048;-64
2021/01/04 07:48:30;;;;;;;6.20;5.90;;;;;;;4.06;84.99;100118.53;5052001;28;20059;-65
2021/01/04 07:51:12;;;;;;;6.00;5.70;;;;;;;4.11;84.97;100126.22;5032466;28;20136;-65
2021/01/04 07:54:17;;;;;;;5.72;5.43;;;;;;;4.14;84.99;100118.41;5032233;28;20060;-64
2021/01/04 07:57:38;;;;;;;5.88;5.57;;;;;;;4.19;85.04;100129.59;5005677;28;20050;-65
2021/01/04 08:00:27;;;;;;;5.72;5.43;;;;;;;4.24;84.93;100144.22;5031916;28;20132;-65
2021/01/04 08:03:26;;;;;;;6.45;6.15;;;;;;;4.26;85.04;100147.63;5034538;28;20088;-64
2021/01/04 08:06:05;;;;;;;6.40;6.10;;;;;;;4.26;84.96;100151.97;5036457;28;20061;-65
2021/01/04 08:08:56;;;;;;;6.18;5.88;;;;;;;4.21;85.01;100151.19;5036282;28;20099;-65
2021/01/04 08:12:08;;;;;;;6.63;6.32;;;;;;;4.23;85.08;100152.88;5035960;28;20133;-65
2021/01/04 08:14:49;;;;;;;5.75;5.45;;;;;;;4.28;84.98;100152.81;5035702;28;20055;-65
2021/01/04 08:17:20;;;;;;;6.82;6.53;;;;;;;4.26;84.91;100170.13;5036207;28;20042;-65
2021/01/04 08:19:51;;;;;;;5.75;5.45;;;;;;;4.27;84.98;100161.47;5035744;28;20071;-65
2021/01/04 08:22:32;;;;;;;5.38;5.07;;;;;;;4.25;84.88;100176.22;5037613;28;20489;-66
2021/01/04 08:25:06;;;;;;;5.63;5.32;;;;;;;4.25;85.00;100176.22;5035120;28;20122;-65
2021/01/04 08:27:45;;;;;;;5.75;5.45;;;;;;;4.26;84.93;100181.38;5036519;28;20132;-65
2021/01/04 08:30:16;;;;;;;6.75;6.45;;;;;;;4.25;84.79;100174.47;5055641;28;20118;-65
2021/01/04 08:32:45;;;;;;;;;;;;;;;4.27;84.65;100182.22;5055842;28;20052;-64
2021/01/04 08:35:15;;;;;;;6.38;6.07;;;;;;;4.14;84.85;100183.25;5055483;28;19921;-66
2021/01/04 08:37:46;;;;;;;5.80;5.50;;;;;;;4.08;85.03;100183.34;5055622;28;20128;-64
2021/01/04 08:40:24;;;;;;;5.95;5.65;;;;;;;4.02;85.01;100189.50;5055402;28;20063;-65
2021/01/04 08:43:01;;;;;;;6.38;6.07;;;;;;;3.97;85.28;100197.34;5054753;28;20455;-64
2021/01/04 08:45:31;;;;;;;5.88;5.57;;;;;;;4.00;85.20;100205.94;5055483;28;20056;-65
2021/01/04 08:47:58;;;;;;;6.40;6.10;;;;;;;4.01;85.16;100207.66;5056031;28;20041;-65
2021/01/04 08:50:36;;;;;;;6.72;6.43;;;;;;;3.99;85.35;100215.47;5055411;28;20044;-66
2021/01/04 08:53:14;;;;;;;6.78;6.47;;;;;;;3.97;85.19;100204.25;5037444;28;20140;-65
2021/01/04 08:55:40;;;;;;;6.45;6.15;;;;;;;3.95;85.08;100209.44;5034954;28;20075;-65
2021/01/04 08:58:25;;;;;;;5.43;5.13;;;;;;;3.88;85.32;100212.13;5034689;28;20045;-65
2021/01/04 09:01:04;;;;;;;6.15;5.85;;;;;;;3.81;85.39;100210.50;5035145;28;20045;-64
2021/01/04 09:03:34;;;;;;;5.75;5.45;;;;;;;3.87;85.45;100210.41;5035080;28;20136;-65
2021/01/04 09:06:12;;;;;;;6.10;5.80;;;;;;;3.90;85.34;100207.78;5035047;28;20042;-65
2021/01/04 09:08:47;;;;;;;6.15;5.85;;;;;;;3.95;85.28;100209.44;5052217;28;20098;-65
2021/01/04 09:11:15;;;;;;;6.20;5.90;;;;;;;4.01;85.24;100205.94;5054766;28;20117;-65
2021/01/04 09:13:42;;;;;;;6.38;6.07;;;;;;;4.03;85.18;100209.38;5033869;28;20053;-67
2021/01/04 09:16:11;;;;;;;5.35;5.05;;;;;;;4.03;85.37;100221.47;5048856;28;20137;-66
2021/01/04 09:18:43;;;;;;;6.03;5.72;;;;;;;4.04;85.26;100220.59;5054397;28;20489;-67
2021/01/04 09:21:23;;;;;;;;;;;;;;;4.17;85.19;100217.84;5053573;28;20053;-67
2021/01/04 09:23:50;;;;;;;5.78;5.47;;;;;;;4.05;85.27;100222.31;5038288;28;19925;-66
2021/01/04 09:26:26;;;;;;;5.85;5.55;;;;;;;4.01;85.39;100218.03;5042466;28;20073;-66
2021/01/04 09:29:03;;;;;;;5.45;5.15;;;;;;;4.01;85.44;100215.44;5047168;28;20045;-66
2021/01/04 09:31:30;;;;;;;5.95;5.65;;;;;;;4.03;85.52;100211.09;5045496;28;20550;-66
2021/01/04 09:33:56;;;;;;;6.45;6.05;;;;;;;4.05;85.55;100217.13;5044230;28;20048;-67
2021/01/04 09:36:24;;;;;;;5.97;5.68;;;;;;;4.06;85.55;100222.28;5044144;28;20073;-66
2021/01/04 09:39:06;;;;;;;6.20;5.90;;;;;;;4.09;85.61;100217.06;5043798;28;20135;-67
2021/01/04 09:41:32;;;;;;;6.13;5.82;;;;;;;4.07;85.38;100218.81;5042747;28;20053;-66
2021/01/04 09:44:04;;;;;;;5.43;5.13;;;;;;;4.08;85.61;100217.06;5043052;28;20125;-68
2021/01/04 09:46:40;;;;;;;5.65;5.35;;;;;;;4.16;85.60;100208.31;5045113;28;20481;-67
2021/01/04 09:49:09;;;;;;;5.90;5.60;;;;;;;4.24;85.51;100206.50;5048361;28;20056;-66
2021/01/04 09:51:39;;;;;;;6.13;5.82;;;;;;;4.27;85.35;100209.03;5044782;28;20038;-66
2021/01/04 09:54:12;;;;;;;6.00;5.70;;;;;;;4.29;85.65;100219.41;5043055;28;20049;-66
2021/01/04 09:56:39;;;;;;;6.10;5.80;;;;;;;4.38;85.56;100218.44;5048661;28;20132;-67
2021/01/04 09:59:08;;;;;;;5.88;5.57;;;;;;;4.41;85.51;100210.59;5043846;28;20289;-66
2021/01/04 10:01:42;;;;;;;6.00;5.70;;;;;;;4.41;85.50;100208.88;5043688;28;20552;-67
2021/01/04 10:04:09;;;;;;;6.10;5.80;;;;;;;4.43;85.41;100204.50;5042144;28;20049;-65
2021/01/04 10:06:38;;;;;;;6.07;5.78;;;;;;;4.42;85.35;100210.56;5041699;28;20132;-67
2021/01/04 10:09:14;;;;;;;6.05;5.75;;;;;;;4.43;85.54;100214.03;5040839;28;20052;-64
2021/01/04 10:11:44;;;;;;;5.90;5.60;;;;;;;4.50;85.42;100213.91;5042028;28;20041;-66
2021/01/04 10:14:13;;;;;;;6.22;5.93;;;;;;;4.51;85.35;100210.44;5035242;28;20423;-66
2021/01/04 10:16:43;;;;;;;6.88;6.57;;;;;;;4.49;85.42;100209.59;5041228;28;20548;-66
2021/01/04 10:19:16;;;;;;;6.00;5.70;;;;;;;4.53;85.56;100202.63;5046103;28;20431;-66
2021/01/04 10:21:49;;;;;;;5.78;5.47;;;;;;;4.57;85.49;100201.69;5043398;28;20067;-66
2021/01/04 10:24:20;;;;;;;5.75;5.45;;;;;;;4.59;85.28;100202.56;5040216;28;20440;-66
2021/01/04 10:26:49;;;;;;;6.03;5.72;;;;;;;4.62;85.38;100202.50;5038668;28;20041;-66
2021/01/04 10:29:18;;;;;;;6.28;5.97;;;;;;;4.58;85.41;100196.50;5038863;28;20049;-66
2021/01/04 10:31:45;;;;;;;5.85;5.55;;;;;;;4.63;85.39;100198.16;5038520;28;20167;-66
2021/01/04 10:34:15;;;;;;;6.28;5.97;;;;;;;4.68;85.42;100206.75;5033568;28;20084;-66
2021/01/04 10:36:50;;;;;;;6.05;5.75;;;;;;;4.66;85.38;100204.16;5035242;28;20124;-67
2021/01/04 10:39:20;;;;;;;6.75;6.45;;;;;;;4.58;85.26;100196.50;5040250;28;20132;-68
2021/01/04 10:41:47;;;;;;;5.87;5.57;;;;;;;4.57;85.40;100194.75;5039984;28;20128;-67
2021/01/04 10:44:21;;;;;;;6.13;5.82;;;;;;;4.61;85.43;100190.41;5038095;28;20053;-65
2021/01/04 10:46:56;;;;;;;5.57;5.28;;;;;;;4.64;85.39;100195.53;5035136;28;20524;-66
2021/01/04 10:49:29;;;;;;;6.47;6.18;;;;;;;4.69;85.47;100187.69;5041063;28;20118;-66
2021/01/04 10:51:56;;;;;;;6.80;6.50;;;;;;;4.77;85.28;100184.06;5035466;28;20128;-65
2021/01/04 10:54:36;;;;;;;6.25;5.95;;;;;;;4.83;85.79;100175.34;5038348;28;20075;-66
2021/01/04 10:57:13;;;;;;;6.25;5.95;;;;;;;4.90;85.29;100172.63;5039870;28;20048;-66
2021/01/04 10:59:44;;;;;;;6.35;6.05;;;;;;;4.96;85.27;100170.78;5041149;28;20128;-66
2021/01/04 11:02:10;;;;;;;6.05;5.75;;;;;;;5.01;85.09;100169.84;5046659;28;20132;-65
2021/01/04 11:04:38;;;;;;;5.93;5.63;;;;;;;5.06;85.18;100161.97;5038617;28;20086;-65
2021/01/04 11:07:17;;;;;;;6.28;5.97;;;;;;;5.11;85.06;100166.19;5037284;28;20329;-65
2021/01/04 11:09:45;;;;;;;6.53;6.22;;;;;;;5.20;85.13;100163.44;5045549;28;20132;-66
2021/01/04 11:12:14;;;;;;;6.45;6.15;;;;;;;5.27;85.24;100161.59;5039974;28;20049;-67
2021/01/04 11:14:53;;;;;;;5.82;5.53;;;;;;;5.35;85.24;100161.44;5034122;28;20095;-65
2021/01/04 11:17:22;;;;;;;6.25;5.95;;;;;;;5.41;85.10;100169.13;5032572;28;20494;-66
2021/01/04 11:19:49;;;;;;;6.60;6.30;;;;;;;5.45;85.00;100171.66;5037110;28;20071;-66
2021/01/04 11:22:25;;;;;;;6.18;5.88;;;;;;;5.46;85.06;100167.31;5036574;28;20049;-65
2021/01/04 11:24:52;;;;;;;6.65;6.35;;;;;;;5.47;84.91;100163.81;5035415;28;20091;-65
2021/01/04 11:27:19;;;;;;;6.85;6.55;;;;;;;5.45;85.03;100161.25;5045142;28;20067;-65
2021/01/04 11:29:46;;;;;;;6.05;5.75;;;;;;;5.50;85.02;100155.97;5039196;28;20136;-65
2021/01/04 11:32:13;;;;;;;7.15;6.78;;;;;;;5.53;84.87;100155.91;5035534;28;20049;-66
2021/01/04 11:34:45;;;;;;;6.85;6.55;;;;;;;5.54;84.97;100157.59;5031269;28;20630;-66
2021/01/04 11:37:11;;;;;;;;;;;;;;;5.65;84.57;100163.47;5040677;28;20052;-66
2021/01/04 11:39:38;;;;;;;6.22;5.93;;;;;;;5.52;84.78;100156.78;5035543;28;19970;-65
2021/01/04 11:42:06;;;;;;;7.28;6.88;;;;;;;5.46;85.02;100152.56;5041788;28;20049;-66
2021/01/04 11:44:32;;;;;;;6.38;6.07;;;;;;;5.47;84.95;100154.28;5035685;28;20412;-66
2021/01/04 11:47:00;;;;;;;6.63;6.32;;;;;;;5.49;84.76;100147.31;5039674;28;20049;-65
2021/01/04 11:49:26;;;;;;;6.53;6.22;;;;;;;5.45;84.87;100165.59;5032156;28;20052;-66
2021/01/04 11:51:52;;;;;;;6.03;5.72;;;;;;;5.38;84.74;100158.78;5032327;28;20065;-66
2021/01/04 11:54:19;;;;;;;6.22;5.93;;;;;;;5.34;84.86;100147.59;5035159;28;20076;-66
2021/01/04 11:56:45;;;;;;;6.20;5.90;;;;;;;5.30;84.77;100145.94;5035809;28;20579;-66
2021/01/04 11:59:13;;;;;;;6.60;6.30;;;;;;;5.25;84.84;100141.72;5032099;28;20084;-65
2021/01/04 12:01:39;;;;;;;5.68;5.38;;;;;;;5.25;85.00;100141.72;5032834;28;20128;-66
2021/01/04 12:04:06;;;;;;;6.82;6.53;;;;;;;5.27;84.99;100145.13;5030884;28;20104;-65
2021/01/04 12:06:32;;;;;;;6.30;6.00;;;;;;;5.30;84.91;100138.13;5037786;28;20192;-65
2021/01/04 12:08:59;;;;;;;6.30;6.00;;;;;;;5.34;84.83;100136.34;5036585;28;20137;-66
2021/01/04 12:11:30;;;;;;;6.32;6.03;;;;;;;5.34;84.79;100132.00;5034077;28;20055;-66